Time;durP1;ratioP1;P1;durP2;ratioP2;P2;SDS_P1;SDS_P2;PMS_P1;PMS_P2;Temp;Humidity;BMP_temperature;BMP_pressure;BME280_temperature;BME280_humidity;BME280_pressure;Samples;Min_cycle;Max_cycle;Signal;HPM_P1;HPM_P2
2024/03/25 00:02:05;;;;;;;;;;;15.10;59.20;;;;;;5112125;28;20010;-72
2024/03/25 00:04:30;;;;;;;;;;;15.70;60.30;;;;;;5112008;28;19924;-72
2024/03/25 00:06:56;;;;;;;;;;;15.80;60.50;;;;;;5112189;28;19915;-72
2024/03/25 00:09:22;;;;;;;;;;;15.70;60.20;;;;;;5112161;28;19976;-72
2024/03/25 00:11:47;;;;;;;;;;;15.80;60.10;;;;;;5094289;28;19908;-70
2024/03/25 00:14:13;;;;;;;;;;;15.80;60.80;;;;;;5112087;28;19912;-70
2024/03/25 00:16:38;;;;;;;;;;;15.80;60.40;;;;;;5112119;28;19908;-70
2024/03/25 00:19:04;;;;;;;;;;;15.60;60.20;;;;;;5114291;28;19968;-69
2024/03/25 00:21:29;;;;;;;;;;;15.80;60.10;;;;;;5116213;28;19916;-70
2024/03/25 00:23:58;;;;;;;;;;;15.70;61.20;;;;;;5116108;28;19911;-69
2024/03/25 00:26:23;;;;;;;;;;;15.70;57.30;;;;;;5116200;28;19924;-69
2024/03/25 00:28:49;;;;;;;;;;;15.70;60.30;;;;;;5116711;28;19908;-69
2024/03/25 00:31:15;;;;;;;;;;;15.60;60.30;;;;;;5116171;28;19914;-70
2024/03/25 00:33:40;;;;;;;;;;;15.80;60.50;;;;;;5116361;28;19915;-70
2024/03/25 00:36:06;;;;;;;;;;;15.80;60.30;;;;;;5116104;28;19953;-69
2024/03/25 00:38:31;;;;;;;;;;;16.00;60.30;;;;;;5116063;28;19911;-70
2024/03/25 00:40:57;;;;;;;;;;;15.70;60.40;;;;;;5115931;28;19923;-69
2024/03/25 00:43:23;;;;;;;;;;;15.70;60.00;;;;;;5116014;28;19908;-69
2024/03/25 00:45:48;;;;;;;;;;;15.70;60.20;;;;;;5115768;28;19908;-69
2024/03/25 00:48:14;;;;;;;;;;;15.70;60.00;;;;;;5115697;28;20369;-69
2024/03/25 00:50:40;;;;;;;;;;;15.70;59.50;;;;;;5115576;28;19907;-70
2024/03/25 00:53:05;;;;;;;;;;;16.50;60.70;;;;;;5115717;28;19946;-69
2024/03/25 00:55:31;;;;;;;;;;;15.70;59.80;;;;;;5116035;28;20396;-69
2024/03/25 00:57:57;;;;;;;;;;;15.60;59.90;;;;;;5115423;28;19965;-69
2024/03/25 01:00:22;;;;;;;;;;;15.60;60.40;;;;;;5115290;28;19931;-69
2024/03/25 01:02:47;;;;;;;;;;;15.70;59.70;;;;;;5115142;28;19919;-70
2024/03/25 01:05:13;;;;;;;;;;;15.70;60.20;;;;;;5115514;28;19937;-69
2024/03/25 01:07:39;;;;;;;;;;;15.60;59.90;;;;;;5115582;28;19908;-70
2024/03/25 01:10:04;;;;;;;;;;;15.70;60.20;;;;;;5115397;28;19984;-69
2024/03/25 01:12:30;;;;;;;;;;;15.60;59.60;;;;;;5115378;28;19908;-70
2024/03/25 01:14:56;;;;;;;;;;;15.60;60.20;;;;;;5115253;28;19907;-69
2024/03/25 01:17:23;;;;;;;;;;;15.30;59.90;;;;;;5115111;28;19908;-69
2024/03/25 01:19:48;;;;;;;;;;;15.60;60.00;;;;;;5115071;28;19934;-69
2024/03/25 01:22:14;;;;;;;;;;;15.60;60.00;;;;;;5114977;28;19920;-69
2024/03/25 01:24:40;;;;;;;;;;;15.60;60.10;;;;;;5115530;28;20526;-69
2024/03/25 01:27:06;;;;;;;;;;;15.50;60.30;;;;;;5114965;28;20002;-69
2024/03/25 01:29:32;;;;;;;;;;;15.70;60.30;;;;;;5114267;28;19908;-69
2024/03/25 01:31:59;;;;;;;;;;;15.60;60.00;;;;;;5114642;28;19908;-69
2024/03/25 01:34:25;;;;;;;;;;;15.60;60.50;;;;;;5114811;28;19918;-69
2024/03/25 01:36:51;;;;;;;;;;;15.50;60.40;;;;;;5114912;28;19914;-69
2024/03/25 01:39:16;;;;;;;;;;;15.70;60.40;;;;;;5114732;28;20010;-69
2024/03/25 01:41:41;;;;;;;;;;;15.60;60.50;;;;;;5114611;28;20014;-69
2024/03/25 01:44:07;;;;;;;;;;;15.50;60.40;;;;;;5114634;28;20377;-69
2024/03/25 01:46:33;;;;;;;;;;;15.50;60.20;;;;;;5114557;28;19908;-69
2024/03/25 01:48:58;;;;;;;;;;;15.50;60.40;;;;;;5114790;28;19908;-69
2024/03/25 01:51:24;;;;;;;;;;;15.60;60.40;;;;;;5114735;28;20002;-69
2024/03/25 01:53:50;;;;;;;;;;;15.50;60.40;;;;;;5115007;28;19908;-69
2024/03/25 01:56:16;;;;;;;;;;;15.50;60.10;;;;;;5114410;28;19908;-70
2024/03/25 01:58:42;;;;;;;;;;;15.50;60.30;;;;;;5114416;28;19907;-69
2024/03/25 02:01:10;;;;;;;;;;;15.50;60.60;;;;;;5096019;28;19915;-69
2024/03/25 02:03:35;;;;;;;;;;;15.60;60.00;;;;;;5114029;28;19920;-69
2024/03/25 02:06:04;;;;;;;;;;;15.50;60.40;;;;;;5114358;28;19915;-69
2024/03/25 02:08:30;;;;;;;;;;;15.50;60.60;;;;;;5114392;28;20107;-69
2024/03/25 02:10:57;;;;;;;;;;;15.50;60.40;;;;;;5114096;28;19908;-70
2024/03/25 02:13:23;;;;;;;;;;;15.50;60.40;;;;;;5114294;28;19958;-69
2024/03/25 02:15:51;;;;;;;;;;;15.90;60.70;;;;;;5114043;28;20316;-69
2024/03/25 02:18:17;;;;;;;;;;;15.40;60.20;;;;;;5113981;28;19915;-69
2024/03/25 02:20:42;;;;;;;;;;;15.50;60.40;;;;;;5114472;28;19916;-69
2024/03/25 02:23:10;;;;;;;;;;;15.50;60.70;;;;;;5113868;28;19914;-69
2024/03/25 02:25:38;;;;;;;;;;;15.40;60.20;;;;;;5113825;28;19912;-69
2024/03/25 02:28:03;;;;;;;;;;;15.50;60.40;;;;;;5114047;28;20288;-69
2024/03/25 02:30:29;;;;;;;;;;;15.50;59.70;;;;;;5113738;28;19908;-69
2024/03/25 02:32:54;;;;;;;;;;;15.50;60.40;;;;;;5113754;28;20298;-70
2024/03/25 02:35:20;;;;;;;;;;;15.50;60.20;;;;;;5113743;28;19928;-69
2024/03/25 02:37:46;;;;;;;;;;;15.40;60.60;;;;;;5113570;28;19922;-69
2024/03/25 02:40:12;;;;;;;;;;;15.40;60.10;;;;;;5113591;28;19911;-69
2024/03/25 02:42:39;;;;;;;;;;;15.50;60.20;;;;;;5113370;28;19950;-69
2024/03/25 02:45:05;;;;;;;;;;;15.40;60.50;;;;;;5113421;28;20011;-69
2024/03/25 02:47:31;;;;;;;;;;;15.40;59.10;;;;;;5113609;28;20460;-69
2024/03/25 02:49:56;;;;;;;;;;;15.40;60.50;;;;;;5113937;28;19960;-69
2024/03/25 02:52:22;;;;;;;;;;;15.50;60.40;;;;;;5113337;28;19908;-69
2024/03/25 02:54:47;;;;;;;;;;;15.70;61.00;;;;;;5113432;28;20007;-69
2024/03/25 02:57:13;;;;;;;;;;;15.40;60.30;;;;;;5113505;28;19988;-69
2024/03/25 02:59:38;;;;;;;;;;;15.50;60.40;;;;;;5113185;28;19908;-69
2024/03/25 03:02:04;;;;;;;;;;;15.50;60.00;;;;;;5113126;28;19926;-70
2024/03/25 03:04:29;;;;;;;;;;;15.40;60.40;;;;;;5112871;28;19920;-69
2024/03/25 03:06:55;;;;;;;;;;;15.40;60.50;;;;;;5113154;28;19981;-70
2024/03/25 03:09:21;;;;;;;;;;;15.90;60.80;;;;;;5112996;28;19934;-69
2024/03/25 03:11:46;;;;;;;;;;;15.40;60.30;;;;;;5113047;28;19907;-69
2024/03/25 03:14:12;;;;;;;;;;;15.40;60.60;;;;;;5112941;28;20374;-69
2024/03/25 03:16:37;;;;;;;;;;;15.40;60.40;;;;;;5112843;28;19908;-69
2024/03/25 03:19:03;;;;;;;;;;;15.60;60.40;;;;;;5095032;28;19967;-69
2024/03/25 03:21:30;;;;;;;;;;;15.40;60.30;;;;;;5112733;28;19916;-69
2024/03/25 03:23:55;;;;;;;;;;;15.40;60.20;;;;;;5112721;28;20325;-69
2024/03/25 03:26:21;;;;;;;;;;;15.50;60.60;;;;;;5112796;28;19955;-69
2024/03/25 03:28:46;;;;;;;;;;;15.30;60.30;;;;;;5112721;28;20294;-69
2024/03/25 03:31:12;;;;;;;;;;;15.40;60.50;;;;;;5113011;28;20006;-69
2024/03/25 03:33:37;;;;;;;;;;;15.80;60.60;;;;;;5112607;28;19930;-69
2024/03/25 03:36:03;;;;;;;;;;;15.10;60.30;;;;;;5112557;28;19914;-69
2024/03/25 03:38:28;;;;;;;;;;;15.30;59.70;;;;;;5112521;28;19907;-69
2024/03/25 03:40:57;;;;;;;;;;;15.30;60.20;;;;;;5112421;28;19926;-70
2024/03/25 03:43:23;;;;;;;;;;;15.30;56.60;;;;;;5112637;28;20274;-69
2024/03/25 03:45:48;;;;;;;;;;;15.40;60.40;;;;;;5112632;28;19915;-69
2024/03/25 03:48:14;;;;;;;;;;;15.30;60.30;;;;;;5112893;28;19912;-69
2024/03/25 03:50:39;;;;;;;;;;;15.40;60.40;;;;;;5112394;28;19922;-69
2024/03/25 03:53:05;;;;;;;;;;;15.20;60.50;;;;;;5112081;28;19908;-69
2024/03/25 03:55:30;;;;;;;;;;;15.30;60.20;;;;;;5112308;28;19908;-69
2024/03/25 03:57:56;;;;;;;;;;;15.30;60.40;;;;;;5112351;28;19951;-69
2024/03/25 04:00:21;;;;;;;;;;;15.30;60.30;;;;;;5112374;28;20457;-69
2024/03/25 04:02:47;;;;;;;;;;;15.40;59.90;;;;;;5111968;28;19920;-69
2024/03/25 04:05:12;;;;;;;;;;;15.30;60.10;;;;;;5112334;28;20352;-69
2024/03/25 04:07:38;;;;;;;;;;;15.30;60.10;;;;;;5112289;28;19912;-69
2024/03/25 04:10:04;;;;;;;;;;;15.20;60.00;;;;;;5112189;28;19912;-69
2024/03/25 04:12:30;;;;;;;;;;;15.20;59.60;;;;;;5112175;28;19943;-69
2024/03/25 04:14:56;;;;;;;;;;;15.20;60.10;;;;;;5112824;28;19915;-72
2024/03/25 04:17:21;;;;;;;;;;;15.20;60.20;;;;;;5112133;28;19914;-72
2024/03/25 04:19:48;;;;;;;;;;;15.20;60.00;;;;;;5112109;28;20294;-72
2024/03/25 04:22:13;;;;;;;;;;;15.30;60.50;;;;;;5112012;28;19922;-72
2024/03/25 04:24:39;;;;;;;;;;;15.20;60.20;;;;;;5112287;28;19994;-72
2024/03/25 04:27:04;;;;;;;;;;;15.30;60.00;;;;;;5112109;28;19911;-72
2024/03/25 04:29:30;;;;;;;;;;;15.10;60.10;;;;;;5112052;28;19960;-72
2024/03/25 04:31:55;;;;;;;;;;;15.20;60.50;;;;;;5111952;28;19915;-72
2024/03/25 04:34:21;;;;;;;;;;;15.20;60.30;;;;;;5111993;28;19908;-72
2024/03/25 04:36:46;;;;;;;;;;;15.20;60.00;;;;;;5111979;28;19908;-72
2024/03/25 04:39:11;;;;;;;;;;;15.20;60.10;;;;;;5111838;28;20335;-72
2024/03/25 04:41:37;;;;;;;;;;;15.20;60.50;;;;;;5111839;28;19916;-72
2024/03/25 04:44:02;;;;;;;;;;;15.20;59.90;;;;;;5112406;28;20354;-72
2024/03/25 04:46:28;;;;;;;;;;;17.10;61.00;;;;;;5111880;28;19951;-72
2024/03/25 04:48:53;;;;;;;;;;;15.20;60.70;;;;;;5111848;28;19919;-72
2024/03/25 04:51:19;;;;;;;;;;;15.20;60.40;;;;;;5111907;28;20269;-72
2024/03/25 04:53:44;;;;;;;;;;;15.10;60.40;;;;;;5111839;28;19908;-72
2024/03/25 04:56:10;;;;;;;;;;;15.20;60.40;;;;;;5111911;28;20281;-72
2024/03/25 04:58:36;;;;;;;;;;;15.10;60.20;;;;;;5111785;28;20030;-72
2024/03/25 05:06:42;;;;;;;;;;;15.10;56.60;;;;;;5101426;28;19963;-69
2024/03/25 05:09:08;;;;;;;;;;;15.20;56.70;;;;;;5095230;28;19916;-69
2024/03/25 05:11:33;;;;;;;;;;;15.10;60.40;;;;;;5095102;28;19908;-69
2024/03/25 05:13:59;;;;;;;;;;;15.10;60.30;;;;;;5095079;28;19909;-69
2024/03/25 05:16:25;;;;;;;;;;;15.10;60.30;;;;;;5095076;28;19943;-69
2024/03/25 05:18:50;;;;;;;;;;;15.10;60.40;;;;;;5095088;28;19971;-69
2024/03/25 05:21:16;;;;;;;;;;;15.00;60.40;;;;;;5094932;28;20019;-68
2024/03/25 05:23:42;;;;;;;;;;;15.20;60.50;;;;;;5094870;28;19981;-68
2024/03/25 05:26:08;;;;;;;;;;;15.10;60.80;;;;;;5094871;28;20312;-68
2024/03/25 05:28:33;;;;;;;;;;;15.20;60.60;;;;;;5094976;28;19934;-68
2024/03/25 05:31:08;;;;;;;;;;;15.10;60.40;;;;;;5094640;28;19960;-68
2024/03/25 05:33:33;;;;;;;;;;;15.20;57.10;;;;;;5094594;28;19951;-68
2024/03/25 05:35:59;;;;;;;;;;;15.10;61.10;;;;;;5094904;28;19958;-68
2024/03/25 05:38:24;;;;;;;;;;;15.20;60.60;;;;;;5094546;28;19908;-69
2024/03/25 05:40:50;;;;;;;;;;;15.20;60.90;;;;;;5094362;28;20396;-68
2024/03/25 05:43:15;;;;;;;;;;;15.20;60.80;;;;;;5094850;28;19923;-69
2024/03/25 05:45:41;;;;;;;;;;;15.20;60.10;;;;;;5094405;28;20335;-69
2024/03/25 05:48:06;;;;;;;;;;;15.10;60.50;;;;;;5094552;28;19999;-71
2024/03/25 05:50:32;;;;;;;;;;;15.20;60.50;;;;;;5094402;28;19912;-71
2024/03/25 05:52:57;;;;;;;;;;;15.20;60.90;;;;;;5094047;28;19965;-71
2024/03/25 05:55:23;;;;;;;;;;;15.10;60.50;;;;;;5094144;28;19999;-71
2024/03/25 05:57:48;;;;;;;;;;;15.20;60.60;;;;;;5094348;28;19962;-71
2024/03/25 06:00:14;;;;;;;;;;;15.20;60.60;;;;;;5094219;28;19927;-71
2024/03/25 06:02:39;;;;;;;;;;;15.20;60.00;;;;;;5093615;28;19920;-71
2024/03/25 06:05:05;;;;;;;;;;;15.10;60.40;;;;;;5096012;28;19908;-72
2024/03/25 06:07:31;;;;;;;;;;;15.20;60.00;;;;;;5095926;28;20491;-72
2024/03/25 06:09:56;;;;;;;;;;;15.20;60.40;;;;;;5093817;28;19908;-72
2024/03/25 06:12:21;;;;;;;;;;;15.10;60.40;;;;;;5093773;28;19919;-72
2024/03/25 06:14:47;;;;;;;;;;;15.10;60.70;;;;;;5093740;28;19972;-71
2024/03/25 06:17:12;;;;;;;;;;;15.30;60.80;;;;;;5093392;28;19908;-72
2024/03/25 06:19:38;;;;;;;;;;;15.10;60.80;;;;;;5093564;28;20322;-71
2024/03/25 06:22:03;;;;;;;;;;;15.10;60.60;;;;;;5093474;28;19927;-71
2024/03/25 06:24:29;;;;;;;;;;;15.20;60.00;;;;;;5093409;28;19908;-72
2024/03/25 06:26:54;;;;;;;;;;;15.10;60.60;;;;;;5093337;28;19930;-72
2024/03/25 06:29:20;;;;;;;;;;;15.20;61.70;;;;;;5093454;28;20342;-71
2024/03/25 06:34:29;;;;;;;;;;;15.20;57.60;;;;;;5093718;28;20320;-71
2024/03/25 06:36:55;;;;;;;;;;;15.30;61.00;;;;;;5093138;28;19908;-72
2024/03/25 06:39:21;;;;;;;;;;;15.10;60.60;;;;;;5093461;28;20015;-72
2024/03/25 06:41:47;;;;;;;;;;;15.10;60.60;;;;;;5092975;28;19916;-72
2024/03/25 06:44:12;;;;;;;;;;;15.20;59.90;;;;;;5093172;28;19915;-71
2024/03/25 06:46:38;;;;;;;;;;;15.10;60.30;;;;;;5093024;28;19912;-70
2024/03/25 06:49:03;;;;;;;;;;;15.10;60.60;;;;;;5093051;28;20102;-70
2024/03/25 06:51:29;;;;;;;;;;;15.20;60.80;;;;;;5092993;28;19908;-71
2024/03/25 06:53:54;;;;;;;;;;;15.10;60.40;;;;;;5092955;28;19915;-70
2024/03/25 06:56:20;;;;;;;;;;;15.10;60.30;;;;;;5092843;28;19999;-71
2024/03/25 06:58:45;;;;;;;;;;;15.10;60.30;;;;;;5092810;28;19912;-74
2024/03/25 07:01:12;;;;;;;;;;;15.10;59.70;;;;;;5094381;28;19940;-71
2024/03/25 07:03:37;;;;;;;;;;;15.10;60.10;;;;;;5092998;28;19973;-73
2024/03/25 07:06:03;;;;;;;;;;;15.20;60.10;;;;;;5092672;28;20320;-72
2024/03/25 07:08:30;;;;;;;;;;;15.10;59.50;;;;;;5092942;28;19908;-71
2024/03/25 07:10:55;;;;;;;;;;;15.10;60.20;;;;;;5092539;28;19919;-72
2024/03/25 07:13:21;;;;;;;;;;;15.10;60.40;;;;;;5092659;28;19908;-72
2024/03/25 07:15:46;;;;;;;;;;;15.10;60.30;;;;;;5092465;28;19976;-70
2024/03/25 07:18:12;;;;;;;;;;;15.10;60.50;;;;;;5092562;28;20004;-71
2024/03/25 07:20:40;;;;;;;;;;;15.10;60.10;;;;;;5092747;28;19913;-72
2024/03/25 07:23:06;;;;;;;;;;;15.10;60.50;;;;;;5092492;28;20003;-72
2024/03/25 07:25:31;;;;;;;;;;;15.10;60.90;;;;;;5092351;28;20023;-72
2024/03/25 07:27:57;;;;;;;;;;;15.10;60.40;;;;;;5073224;28;19935;-72
2024/03/25 07:30:27;;;;;;;;;;;15.10;60.30;;;;;;5092838;28;19909;-71
2024/03/25 07:32:52;;;;;;;;;;;15.10;60.70;;;;;;5092125;28;19908;-73
2024/03/25 07:35:18;;;;;;;;;;;15.10;60.70;;;;;;5092429;28;19919;-71
2024/03/25 07:37:44;;;;;;;;;;;15.50;61.20;;;;;;5092162;28;19914;-71
2024/03/25 07:40:11;;;;;;;;;;;15.10;60.70;;;;;;5093124;28;19908;-71
2024/03/25 07:42:38;;;;;;;;;;;15.10;60.80;;;;;;5092490;28;19995;-70
2024/03/25 07:45:04;;;;;;;;;;;15.20;61.00;;;;;;5092285;28;19969;-72
2024/03/25 07:47:30;;;;;;;;;;;15.20;60.50;;;;;;5092267;28;19908;-71
2024/03/25 07:49:56;;;;;;;;;;;15.20;61.20;;;;;;5092005;28;19908;-71
2024/03/25 07:52:21;;;;;;;;;;;15.20;61.00;;;;;;5091878;28;19975;-71
2024/03/25 07:54:47;;;;;;;;;;;15.20;61.00;;;;;;5091944;28;19977;-72
2024/03/25 07:57:12;;;;;;;;;;;15.30;61.60;;;;;;5092422;28;20420;-71
2024/03/25 07:59:38;;;;;;;;;;;15.30;61.50;;;;;;5091895;28;20362;-74
2024/03/25 08:02:04;;;;;;;;;;;15.30;61.10;;;;;;5091404;28;19924;-76
2024/03/25 08:04:30;;;;;;;;;;;15.30;62.40;;;;;;5092016;28;19927;-72
2024/03/25 08:06:55;;;;;;;;;;;15.30;61.80;;;;;;5091793;28;19908;-71
2024/03/25 08:09:20;;;;;;;;;;;15.40;61.70;;;;;;5091843;28;19919;-71
2024/03/25 08:11:46;;;;;;;;;;;15.50;61.30;;;;;;5091773;28;19908;-72
2024/03/25 08:14:11;;;;;;;;;;;15.40;61.80;;;;;;5091657;28;20314;-71
2024/03/25 08:16:37;;;;;;;;;;;15.40;61.80;;;;;;5091647;28;19915;-71
2024/03/25 08:19:03;;;;;;;;;;;15.50;61.70;;;;;;5091757;28;19912;-71
2024/03/25 08:21:28;;;;;;;;;;;15.50;62.10;;;;;;5091611;28;19946;-71
2024/03/25 08:23:54;;;;;;;;;;;15.50;62.00;;;;;;5091943;28;19961;-71
2024/03/25 08:26:20;;;;;;;;;;;15.60;61.70;;;;;;5092289;28;19908;-71
2024/03/25 08:28:48;;;;;;;;;;;15.60;62.20;;;;;;5091608;28;19908;-71
2024/03/25 08:31:15;;;;;;;;;;;15.50;62.30;;;;;;5091933;28;19954;-71
2024/03/25 08:33:41;;;;;;;;;;;15.60;62.00;;;;;;5091831;28;20415;-71
2024/03/25 08:36:07;;;;;;;;;;;15.40;62.20;;;;;;5091890;28;19995;-71
2024/03/25 08:38:33;;;;;;;;;;;15.70;61.30;;;;;;5091822;28;19916;-71
2024/03/25 08:40:58;;;;;;;;;;;15.70;62.20;;;;;;5076984;28;19916;-71
2024/03/25 08:43:24;;;;;;;;;;;15.60;62.00;;;;;;5095653;28;19908;-71
2024/03/25 08:45:49;;;;;;;;;;;15.80;62.30;;;;;;5095354;28;19908;-71
2024/03/25 08:48:15;;;;;;;;;;;15.70;62.30;;;;;;5095492;28;19912;-71
2024/03/25 08:50:40;;;;;;;;;;;15.70;62.20;;;;;;5095306;28;19908;-71
2024/03/25 08:53:06;;;;;;;;;;;15.70;62.40;;;;;;5095310;28;19944;-71
2024/03/25 08:55:31;;;;;;;;;;;15.80;62.30;;;;;;5095634;28;19949;-71
2024/03/25 08:57:58;;;;;;;;;;;15.80;62.10;;;;;;5095229;28;20377;-71
2024/03/25 09:00:27;;;;;;;;;;;15.90;62.40;;;;;;5094965;28;19947;-71
2024/03/25 09:02:53;;;;;;;;;;;15.90;61.80;;;;;;5094791;28;19965;-69
2024/03/25 09:05:18;;;;;;;;;;;15.90;62.30;;;;;;5094973;28;20325;-71
2024/03/25 09:07:51;;;;;;;;;;;15.90;62.30;;;;;;5095269;28;20362;-71
2024/03/25 09:13:01;;;;;;;;;;;16.00;62.30;;;;;;5102039;28;20193;-71
2024/03/25 09:15:26;;;;;;;;;;;15.80;62.00;;;;;;5094785;28;20030;-70
2024/03/25 09:17:52;;;;;;;;;;;16.00;62.10;;;;;;5094863;28;19918;-69
2024/03/25 09:20:17;;;;;;;;;;;16.10;62.10;;;;;;5094759;28;19978;-69
2024/03/25 09:22:44;;;;;;;;;;;16.10;62.10;;;;;;5094617;28;19924;-69
2024/03/25 09:25:09;;;;;;;;;;;16.20;62.20;;;;;;5094739;28;19953;-68
2024/03/25 09:27:35;;;;;;;;;;;16.20;62.20;;;;;;5094572;28;19908;-70
2024/03/25 09:30:00;;;;;;;;;;;16.50;62.40;;;;;;5094394;28;19961;-70
2024/03/25 09:32:26;;;;;;;;;;;16.30;62.20;;;;;;5094264;28;20050;-70
2024/03/25 09:34:52;;;;;;;;;;;16.30;61.90;;;;;;5094233;28;20403;-70
2024/03/25 09:37:17;;;;;;;;;;;16.40;62.10;;;;;;5094188;28;19931;-70
2024/03/25 09:39:43;;;;;;;;;;;16.40;61.90;;;;;;5094103;28;19908;-70
2024/03/25 09:42:11;;;;;;;;;;;16.40;61.60;;;;;;5094658;28;19969;-71
2024/03/25 09:44:36;;;;;;;;;;;16.60;61.90;;;;;;5094018;28;19931;-71
2024/03/25 09:47:02;;;;;;;;;;;16.50;61.60;;;;;;5093993;28;19956;-71
2024/03/25 09:49:28;;;;;;;;;;;16.60;61.80;;;;;;5093948;28;20022;-72
2024/03/25 09:51:54;;;;;;;;;;;16.70;61.70;;;;;;5093318;28;19914;-73
2024/03/25 09:54:20;;;;;;;;;;;16.70;61.50;;;;;;5093962;28;19908;-71
2024/03/25 09:56:45;;;;;;;;;;;16.80;61.40;;;;;;5093858;28;19915;-71
2024/03/25 09:59:12;;;;;;;;;;;16.80;61.00;;;;;;5093847;28;20012;-71
2024/03/25 10:01:37;;;;;;;;;;;17.10;60.80;;;;;;5093305;28;19917;-71
2024/03/25 10:04:03;;;;;;;;;;;16.90;60.90;;;;;;5093709;28;19916;-72
2024/03/25 10:06:28;;;;;;;;;;;17.00;61.00;;;;;;5093709;28;19908;-72
2024/03/25 10:08:57;;;;;;;;;;;17.00;59.80;;;;;;5093201;28;20420;-71
2024/03/25 10:11:23;;;;;;;;;;;17.10;61.30;;;;;;5094050;28;20378;-72
2024/03/25 10:13:48;;;;;;;;;;;17.10;61.20;;;;;;5093390;28;19912;-72
2024/03/25 10:16:14;;;;;;;;;;;17.10;60.80;;;;;;5093536;28;20361;-72
2024/03/25 10:18:40;;;;;;;;;;;17.20;61.10;;;;;;5093595;28;19916;-72
2024/03/25 10:21:09;;;;;;;;;;;17.40;60.70;;;;;;5093301;28;19939;-72
2024/03/25 10:23:40;;;;;;;;;;;17.30;60.60;;;;;;5093253;28;19928;-72
2024/03/25 10:26:06;;;;;;;;;;;17.40;60.60;;;;;;5093179;28;20380;-72
2024/03/25 10:28:31;;;;;;;;;;;17.40;61.20;;;;;;5093360;28;19908;-72
2024/03/25 10:31:03;;;;;;;;;;;17.50;60.50;;;;;;5093327;28;19938;-71
2024/03/25 10:33:29;;;;;;;;;;;17.60;60.40;;;;;;5093162;28;19916;-72
2024/03/25 10:35:55;;;;;;;;;;;17.60;60.50;;;;;;5093000;28;19915;-72
2024/03/25 10:38:23;;;;;;;;;;;17.70;60.20;;;;;;5093744;28;19908;-72
2024/03/25 10:40:52;;;;;;;;;;;17.80;60.30;;;;;;5093048;28;19912;-72
2024/03/25 10:43:17;;;;;;;;;;;17.80;60.10;;;;;;5092843;28;19908;-72
2024/03/25 10:45:48;;;;;;;;;;;17.90;60.20;;;;;;5092746;28;19908;-72
2024/03/25 10:48:30;;;;;;;;;;;18.00;56.90;;;;;;5092693;28;19908;-72
2024/03/25 10:50:56;;;;;;;;;;;18.00;56.70;;;;;;5092651;28;19908;-71
2024/03/25 10:53:27;;;;;;;;;;;18.10;59.70;;;;;;5092988;28;19934;-72
2024/03/25 10:55:53;;;;;;;;;;;18.20;59.80;;;;;;5092578;28;19908;-72
2024/03/25 10:58:20;;;;;;;;;;;18.30;60.00;;;;;;5092984;28;20288;-72
2024/03/25 11:00:47;;;;;;;;;;;18.40;59.90;;;;;;5092489;28;19977;-72
2024/03/25 11:03:13;;;;;;;;;;;18.50;59.30;;;;;;5074308;28;19946;-72
2024/03/25 11:05:39;;;;;;;;;;;18.50;59.40;;;;;;5092706;28;19912;-72
2024/03/25 11:08:14;;;;;;;;;;;18.70;59.60;;;;;;5093189;28;19969;-72
2024/03/25 11:10:43;;;;;;;;;;;18.60;56.30;;;;;;5092512;28;20012;-72
2024/03/25 11:13:11;;;;;;;;;;;18.70;59.60;;;;;;5092475;28;19912;-72
2024/03/25 11:15:41;;;;;;;;;;;19.00;56.30;;;;;;5092691;28;19908;-72
2024/03/25 11:18:10;;;;;;;;;;;18.80;59.40;;;;;;5092757;28;19909;-73
2024/03/25 11:20:36;;;;;;;;;;;18.90;59.10;;;;;;5092354;28;19919;-73
2024/03/25 11:23:07;;;;;;;;;;;19.00;59.20;;;;;;5092470;28;19920;-73
2024/03/25 11:25:33;;;;;;;;;;;19.10;59.00;;;;;;5092364;28;19908;-73
2024/03/25 11:27:59;;;;;;;;;;;19.10;58.90;;;;;;5092185;28;19908;-72
2024/03/25 11:30:26;;;;;;;;;;;19.20;58.70;;;;;;5092524;28;19914;-73
2024/03/25 11:32:53;;;;;;;;;;;19.30;58.70;;;;;;5092158;28;19919;-73
2024/03/25 11:35:18;;;;;;;;;;;19.30;58.80;;;;;;5092747;28;19912;-73
2024/03/25 11:37:44;;;;;;;;;;;19.40;58.50;;;;;;5092049;28;19914;-77
2024/03/25 11:40:12;;;;;;;;;;;19.30;58.70;;;;;;5073873;28;19947;-75
2024/03/25 11:42:42;;;;;;;;;;;19.60;58.00;;;;;;5092059;28;19968;-75
2024/03/25 11:45:14;;;;;;;;;;;19.70;55.10;;;;;;5092230;28;20371;-77
2024/03/25 11:47:40;;;;;;;;;;;19.80;57.60;;;;;;5092220;28;19908;-73
2024/03/25 11:50:09;;;;;;;;;;;19.80;57.20;;;;;;5092003;28;20408;-73
2024/03/25 11:52:35;;;;;;;;;;;19.90;57.70;;;;;;5092003;28;19909;-73
2024/03/25 11:55:00;;;;;;;;;;;20.80;58.20;;;;;;5091957;28;19915;-73
2024/03/25 11:57:26;;;;;;;;;;;20.00;57.60;;;;;;5092393;28;20306;-73
2024/03/25 11:59:51;;;;;;;;;;;20.00;57.50;;;;;;5073989;28;20458;-73
2024/03/25 12:02:17;;;;;;;;;;;20.10;56.90;;;;;;5091815;28;19924;-73
2024/03/25 12:04:43;;;;;;;;;;;20.10;57.20;;;;;;5092568;28;19911;-73
2024/03/25 12:07:10;;;;;;;;;;;20.10;57.30;;;;;;5092084;28;19912;-73
2024/03/25 12:12:20;;;;;;;;;;;20.30;54.80;;;;;;5099013;28;19961;-74
2024/03/25 12:14:46;;;;;;;;;;;20.50;56.90;;;;;;5093685;28;20429;-74
2024/03/25 12:17:12;;;;;;;;;;;20.50;55.90;;;;;;5096410;28;19934;-74
2024/03/25 12:19:37;;;;;;;;;;;22.40;57.60;;;;;;5095999;28;19915;-74
2024/03/25 12:22:04;;;;;;;;;;;20.50;56.60;;;;;;5096099;28;19916;-74
2024/03/25 12:24:30;;;;;;;;;;;20.60;56.50;;;;;;5095941;28;20378;-74
2024/03/25 12:26:56;;;;;;;;;;;20.50;56.60;;;;;;5096187;28;20001;-74
2024/03/25 12:29:22;;;;;;;;;;;20.60;56.70;;;;;;5095807;28;19908;-74
2024/03/25 12:31:55;;;;;;;;;;;20.60;56.60;;;;;;5096201;28;19919;-74
2024/03/25 12:34:21;;;;;;;;;;;21.00;53.80;;;;;;5096165;28;19994;-74
2024/03/25 12:36:50;;;;;;;;;;;20.80;56.00;;;;;;5095990;28;20357;-74
2024/03/25 12:39:19;;;;;;;;;;;21.00;53.40;;;;;;5095582;28;20384;-74
2024/03/25 12:41:45;;;;;;;;;;;20.90;53.30;;;;;;5095878;28;19916;-73
2024/03/25 12:44:14;;;;;;;;;;;20.80;56.10;;;;;;5095577;28;19977;-74
2024/03/25 12:46:40;;;;;;;;;;;20.70;53.90;;;;;;5095869;28;19908;-74
2024/03/25 12:49:06;;;;;;;;;;;20.60;56.70;;;;;;5095347;28;20312;-74
2024/03/25 12:51:32;;;;;;;;;;;20.50;56.80;;;;;;5095757;28;19961;-74
2024/03/25 12:53:58;;;;;;;;;;;20.50;56.90;;;;;;5095345;28;19912;-73
2024/03/25 12:56:24;;;;;;;;;;;20.40;57.40;;;;;;5095335;28;20003;-74
2024/03/25 12:58:51;;;;;;;;;;;20.30;57.70;;;;;;5095312;28;19965;-74
2024/03/25 13:01:17;;;;;;;;;;;20.30;57.40;;;;;;5095826;28;20376;-74
2024/03/25 13:03:43;;;;;;;;;;;20.50;58.00;;;;;;5094879;28;19928;-73
2024/03/25 13:06:08;;;;;;;;;;;20.10;58.20;;;;;;5095341;28;20571;-74
2024/03/25 13:08:34;;;;;;;;;;;20.00;58.50;;;;;;5076882;28;19912;-75
2024/03/25 13:10:59;;;;;;;;;;;19.90;58.90;;;;;;5095029;28;19915;-75
2024/03/25 13:13:25;;;;;;;;;;;19.90;58.80;;;;;;5095129;28;20319;-73
2024/03/25 13:15:50;;;;;;;;;;;19.90;58.30;;;;;;5095017;28;19943;-73
2024/03/25 13:18:16;;;;;;;;;;;19.90;58.80;;;;;;5094866;28;19907;-74
2024/03/25 13:20:43;;;;;;;;;;;19.90;58.90;;;;;;5094821;28;19915;-74
2024/03/25 13:23:09;;;;;;;;;;;19.80;58.90;;;;;;5094839;28;19908;-74
2024/03/25 13:25:34;;;;;;;;;;;19.80;58.90;;;;;;5093633;28;20534;-78
2024/03/25 13:28:00;;;;;;;;;;;19.80;58.80;;;;;;5094509;28;19915;-72
2024/03/25 13:30:26;;;;;;;;;;;19.90;58.80;;;;;;5095079;28;19908;-73
2024/03/25 13:32:52;;;;;;;;;;;20.10;58.30;;;;;;5094627;28;19916;-74
2024/03/25 13:35:18;;;;;;;;;;;20.30;57.50;;;;;;5094573;28;20267;-73
2024/03/25 13:37:43;;;;;;;;;;;20.50;57.20;;;;;;5076400;28;19908;-75
2024/03/25 13:40:11;;;;;;;;;;;20.70;56.80;;;;;;5094496;28;19908;-75
2024/03/25 13:42:37;;;;;;;;;;;20.90;55.80;;;;;;5076219;28;19920;-75
2024/03/25 13:45:04;;;;;;;;;;;21.00;56.40;;;;;;5094418;28;20432;-75
2024/03/25 13:47:29;;;;;;;;;;;21.00;55.30;;;;;;5076048;28;20400;-75
2024/03/25 13:50:01;;;;;;;;;;;21.10;55.40;;;;;;5076095;28;19909;-74
2024/03/25 13:52:27;;;;;;;;;;;21.20;52.60;;;;;;5094232;28;19912;-74
2024/03/25 13:54:53;;;;;;;;;;;21.20;55.10;;;;;;5094375;28;20003;-74
2024/03/25 13:57:22;;;;;;;;;;;21.20;55.20;;;;;;5094282;28;19919;-75
2024/03/25 13:59:48;;;;;;;;;;;21.10;52.50;;;;;;5094251;28;19908;-75
2024/03/25 14:02:13;;;;;;;;;;;21.60;54.20;;;;;;5093712;28;19927;-74
2024/03/25 14:04:39;;;;;;;;;;;21.40;54.70;;;;;;5093993;28;19908;-75
2024/03/25 14:07:04;;;;;;;;;;;21.60;54.90;;;;;;5094024;28;19932;-74
2024/03/25 14:09:30;;;;;;;;;;;21.40;54.50;;;;;;5093973;28;19915;-74
2024/03/25 14:11:56;;;;;;;;;;;21.40;54.50;;;;;;5075678;28;19908;-75
2024/03/25 14:14:21;;;;;;;;;;;21.40;54.30;;;;;;5093795;28;19908;-75
2024/03/25 14:16:47;;;;;;;;;;;21.60;54.30;;;;;;5093822;28;19908;-75
2024/03/25 14:19:12;;;;;;;;;;;21.60;54.00;;;;;;5093849;28;19938;-75
2024/03/25 14:21:38;;;;;;;;;;;21.60;53.60;;;;;;5093592;28;19920;-75
2024/03/25 14:24:04;;;;;;;;;;;21.60;53.90;;;;;;5093724;28;19935;-75